Time;durP1;ratioP1;P1;durP2;ratioP2;P2;SDS_P1;SDS_P2;PMS_P1;PMS_P2;Temp;Humidity;BMP_temperature;BMP_pressure;BME280_temperature;BME280_humidity;BME280_pressure;Samples;Min_cycle;Max_cycle;Signal;HPM_P1;HPM_P2
2022/04/12 00:02:16;;;;;;;;;;;;;;;;;;5095131;28;19908;-43
2022/04/12 00:04:41;;;;;;;;;;;;;;;;;;5094939;28;20404;-43
2022/04/12 00:07:06;;;;;;;;;;;;;;;;;;5094895;28;19916;-43
2022/04/12 00:09:32;;;;;;;;;;;;;;;;;;5094959;28;19912;-43
2022/04/12 00:11:58;;;;;;;;;;;;;;;;;;5094780;28;19924;-43
2022/04/12 00:14:23;;;;;;;;;;;;;;;;;;5087210;22;20008;-43
2022/04/12 00:19:02;;;;;;;;;;;;;;;;;;5074626;28;19955;-43
2022/04/12 00:19:34;;;;;;;;;;;;;;;;;;5074521;28;19916;-43
2022/04/12 00:21:59;;;;;;;;;;;;;;;;;;5074813;28;19916;-44
2022/04/12 00:24:25;;;;;;;;;;;;;;;;;;5074860;28;19909;-45
2022/04/12 00:26:50;;;;;;;;;;;;;;;;;;5075081;28;19930;-44
2022/04/12 00:29:15;;;;;;;;;;;;;;;;;;5074479;28;19953;-43
2022/04/12 00:31:40;;;;;;;;;;;;;;;;;;5074974;28;20355;-43
2022/04/12 00:34:05;;;;;;;;;;;;;;;;;;5076320;28;19983;-43
2022/04/12 00:36:30;;;;;;;;;;;;;;;;;;5078733;28;20256;-43
2022/04/12 00:38:56;;;;;;;;;;;;;;;;;;5078617;28;19912;-43
2022/04/12 00:41:21;;;;;;;;;;;;;;;;;;5078433;28;20003;-43
2022/04/12 00:43:46;;;;;;;;;;;;;;;;;;5094559;28;19912;-44
2022/04/12 00:46:11;;;;;;;;;;;;;;;;;;5098975;28;19912;-43
2022/04/12 00:48:36;;;;;;;;;;;;;;;;;;5098538;28;19908;-43
2022/04/12 00:51:01;;;;;;;;;;;;;;;;;;5098604;28;19939;-44
2022/04/12 00:53:27;;;;;;;;;;;;;;;;;;5098566;28;19931;-43
2022/04/12 00:55:52;;;;;;;;;;;;;;;;;;5098319;28;19995;-42
2022/04/12 00:58:17;;;;;;;;;;;;;;;;;;5098103;28;19912;-43
2022/04/12 01:00:42;;;;;;;;;;;;;;;;;;5108885;28;19920;-43
2022/04/12 01:03:07;;;;;;;;;;;;;;;;;;5118511;28;20271;-43
2022/04/12 01:05:32;;;;;;;;;;;;;;;;;;5118627;28;20022;-42
2022/04/12 01:07:58;;;;;;;;;;;;;;;;;;5118625;28;19907;-44
2022/04/12 01:10:23;;;;;;;;;;;;;;;;;;5118743;28;19915;-43
2022/04/12 01:12:48;;;;;;;;;;;;;;;;;;5118497;28;19907;-43
2022/04/12 01:15:14;;;;;;;;;;;;;;;;;;5118353;28;19924;-42
2022/04/12 01:17:39;;;;;;;;;;;;;;;;;;5118636;28;20002;-42
2022/04/12 01:20:06;;;;;;;;;;;;;;;;;;5118651;28;20342;-43
2022/04/12 01:22:31;;;;;;;;;;;;;;;;;;5118746;28;19908;-42
2022/04/12 01:24:56;;;;;;;;;;;;;;;;;;5118513;28;20408;-43
2022/04/12 01:27:21;;;;;;;;;;;;;;;;;;5118703;28;19912;-44
2022/04/12 01:29:49;;;;;;;;;;;;;;;;;;5118515;28;20327;-42
2022/04/12 01:32:14;;;;;;;;;;;;;;;;;;5118259;28;19929;-43
2022/04/12 01:34:39;;;;;;;;;;;;;;;;;;5118312;28;19994;-43
2022/04/12 01:37:05;;;;;;;;;;;;;;;;;;5118224;28;19907;-43
2022/04/12 01:39:30;;;;;;;;;;;;;;;;;;5118000;28;19957;-43
2022/04/12 01:41:55;;;;;;;;;;;;;;;;;;5118441;28;19914;-43
2022/04/12 01:44:20;;;;;;;;;;;;;;;;;;5117956;28;20003;-44
2022/04/12 01:46:45;;;;;;;;;;;;;;;;;;5116766;28;19908;-43
2022/04/12 01:49:11;;;;;;;;;;;;;;;;;;5099617;28;19915;-44
2022/04/12 01:51:36;;;;;;;;;;;;;;;;;;5117969;28;20354;-43
2022/04/12 01:54:01;;;;;;;;;;;;;;;;;;5118183;28;19908;-43
2022/04/12 01:56:26;;;;;;;;;;;;;;;;;;5117947;28;19947;-44
2022/04/12 01:58:51;;;;;;;;;;;;;;;;;;5117919;28;19918;-45
2022/04/12 02:01:16;;;;;;;;;;;;;;;;;;5117665;28;19908;-43
2022/04/12 02:03:41;;;;;;;;;;;;;;;;;;5117620;28;19908;-43
2022/04/12 02:06:07;;;;;;;;;;;;;;;;;;5117630;28;20320;-44
2022/04/12 02:08:32;;;;;;;;;;;;;;;;;;5117495;28;19908;-44
2022/04/12 02:10:57;;;;;;;;;;;;;;;;;;5117397;28;19908;-43
2022/04/12 02:13:22;;;;;;;;;;;;;;;;;;5106682;28;19969;-43
2022/04/12 02:15:47;;;;;;;;;;;;;;;;;;5096813;28;19912;-44
2022/04/12 02:18:12;;;;;;;;;;;;;;;;;;5096880;28;20010;-43
2022/04/12 02:20:37;;;;;;;;;;;;;;;;;;5096796;28;19915;-43
2022/04/12 02:23:02;;;;;;;;;;;;;;;;;;5096755;28;19931;-43
2022/04/12 02:25:27;;;;;;;;;;;;;;;;;;5096839;28;19950;-43
2022/04/12 02:27:53;;;;;;;;;;;;;;;;;;5096553;28;20394;-43
2022/04/12 02:30:18;;;;;;;;;;;;;;;;;;5096350;28;19915;-42
2022/04/12 02:32:43;;;;;;;;;;;;;;;;;;5096715;28;19914;-45
2022/04/12 02:35:08;;;;;;;;;;;;;;;;;;5097390;28;19908;-42
2022/04/12 02:37:33;;;;;;;;;;;;;;;;;;5096773;28;19912;-43
2022/04/12 02:39:59;;;;;;;;;;;;;;;;;;5096568;28;19912;-43
2022/04/12 02:42:24;;;;;;;;;;;;;;;;;;5096666;28;19910;-42
2022/04/12 02:44:49;;;;;;;;;;;;;;;;;;5096633;28;19908;-42
2022/04/12 02:47:14;;;;;;;;;;;;;;;;;;5096778;28;19912;-42
2022/04/12 02:49:39;;;;;;;;;;;;;;;;;;5096203;28;20343;-43
2022/04/12 02:52:04;;;;;;;;;;;;;;;;;;5114011;28;20266;-43
2022/04/12 02:54:29;;;;;;;;;;;;;;;;;;5098506;28;19915;-43
2022/04/12 02:56:54;;;;;;;;;;;;;;;;;;5116408;28;19915;-42
2022/04/12 02:59:19;;;;;;;;;;;;;;;;;;5116462;28;19911;-43
2022/04/12 03:01:45;;;;;;;;;;;;;;;;;;5116497;28;19912;-42
2022/04/12 03:04:10;;;;;;;;;;;;;;;;;;5116573;28;19961;-43
2022/04/12 03:06:35;;;;;;;;;;;;;;;;;;5116429;28;19911;-43
2022/04/12 03:09:00;;;;;;;;;;;;;;;;;;5116316;28;19903;-43
2022/04/12 03:11:25;;;;;;;;;;;;;;;;;;5116271;28;20367;-42
2022/04/12 03:13:50;;;;;;;;;;;;;;;;;;5115957;28;19920;-44
2022/04/12 03:16:16;;;;;;;;;;;;;;;;;;5115807;28;20255;-43
2022/04/12 03:18:41;;;;;;;;;;;;;;;;;;5115955;28;20008;-44
2022/04/12 03:21:06;;;;;;;;;;;;;;;;;;5116013;28;19914;-43
2022/04/12 03:23:31;;;;;;;;;;;;;;;;;;5116033;28;19953;-44
2022/04/12 03:25:56;;;;;;;;;;;;;;;;;;5115870;28;20270;-44
2022/04/12 03:28:21;;;;;;;;;;;;;;;;;;5116031;28;19934;-44
2022/04/12 03:30:46;;;;;;;;;;;;;;;;;;5115929;28;19913;-44
2022/04/12 03:33:11;;;;;;;;;;;;;;;;;;5115779;28;19915;-44
2022/04/12 03:35:36;;;;;;;;;;;;;;;;;;5115720;28;20445;-44
2022/04/12 03:38:01;;;;;;;;;;;;;;;;;;5115587;28;20355;-43
2022/04/12 03:40:28;;;;;;;;;;;;;;;;;;5115912;28;19947;-44
2022/04/12 03:42:53;;;;;;;;;;;;;;;;;;5115656;28;20274;-44
2022/04/12 03:45:19;;;;;;;;;;;;;;;;;;5115457;28;19915;-43
2022/04/12 03:47:44;;;;;;;;;;;;;;;;;;5115691;28;19960;-43
2022/04/12 03:50:09;;;;;;;;;;;;;;;;;;5115928;28;19994;-44
2022/04/12 03:52:34;;;;;;;;;;;;;;;;;;5115559;28;19954;-44
2022/04/12 03:55:00;;;;;;;;;;;;;;;;;;5115976;28;19978;-43
2022/04/12 03:57:25;;;;;;;;;;;;;;;;;;5115634;28;19979;-44
2022/04/12 03:59:50;;;;;;;;;;;;;;;;;;5115752;28;19919;-45
2022/04/12 04:02:16;;;;;;;;;;;;;;;;;;5115717;28;20343;-44
2022/04/12 04:04:41;;;;;;;;;;;;;;;;;;5115635;28;19915;-43
2022/04/12 04:07:06;;;;;;;;;;;;;;;;;;5115400;28;20378;-44
2022/04/12 04:09:31;;;;;;;;;;;;;;;;;;5117685;28;19995;-44
2022/04/12 04:11:56;;;;;;;;;;;;;;;;;;5119854;28;19961;-43
2022/04/12 04:14:22;;;;;;;;;;;;;;;;;;5120198;28;19920;-43
2022/04/12 04:16:47;;;;;;;;;;;;;;;;;;5119700;28;19907;-44
2022/04/12 04:19:12;;;;;;;;;;;;;;;;;;5119364;28;19962;-43
2022/04/12 04:21:37;;;;;;;;;;;;;;;;;;5119358;28;20056;-45
2022/04/12 04:24:02;;;;;;;;;;;;;;;;;;5119368;28;19914;-44
2022/04/12 04:26:28;;;;;;;;;;;;;;;;;;5119192;28;20274;-43
2022/04/12 04:28:53;;;;;;;;;;;;;;;;;;5119581;28;19915;-44
2022/04/12 04:31:18;;;;;;;;;;;;;;;;;;5119321;28;20369;-43
2022/04/12 04:33:43;;;;;;;;;;;;;;;;;;5119832;28;19908;-44
2022/04/12 04:36:08;;;;;;;;;;;;;;;;;;5119198;28;19912;-43
2022/04/12 04:38:33;;;;;;;;;;;;;;;;;;5119168;28;19911;-44
2022/04/12 04:40:58;;;;;;;;;;;;;;;;;;5119123;28;20370;-43
2022/04/12 04:43:23;;;;;;;;;;;;;;;;;;5119254;28;19951;-43
2022/04/12 04:45:48;;;;;;;;;;;;;;;;;;5100824;28;19915;-43
2022/04/12 04:48:14;;;;;;;;;;;;;;;;;;5100891;28;19915;-43
2022/04/12 04:50:39;;;;;;;;;;;;;;;;;;5119094;28;19907;-44
2022/04/12 04:53:04;;;;;;;;;;;;;;;;;;5119209;28;19911;-45
2022/04/12 04:55:29;;;;;;;;;;;;;;;;;;5119038;28;20359;-42
2022/04/12 04:57:55;;;;;;;;;;;;;;;;;;5118958;28;19939;-43
2022/04/12 05:00:22;;;;;;;;;;;;;;;;;;5119384;28;19934;-43
2022/04/12 05:02:47;;;;;;;;;;;;;;;;;;5118978;28;19926;-42
2022/04/12 05:05:12;;;;;;;;;;;;;;;;;;5118936;28;20363;-44
2022/04/12 05:07:37;;;;;;;;;;;;;;;;;;5118927;28;19990;-43
2022/04/12 05:10:02;;;;;;;;;;;;;;;;;;5118669;28;20016;-43
2022/04/12 05:12:27;;;;;;;;;;;;;;;;;;5118681;28;20016;-43
2022/04/12 05:14:52;;;;;;;;;;;;;;;;;;5118632;28;19928;-42
2022/04/12 05:17:17;;;;;;;;;;;;;;;;;;5118591;28;19950;-42
2022/04/12 05:19:43;;;;;;;;;;;;;;;;;;5118512;28;20355;-43
2022/04/12 05:22:08;;;;;;;;;;;;;;;;;;5118418;28;20279;-42
2022/04/12 05:24:33;;;;;;;;;;;;;;;;;;5119317;28;20373;-42
2022/04/12 05:26:58;;;;;;;;;;;;;;;;;;5090301;28;20256;-42
2022/04/12 05:29:23;;;;;;;;;;;;;;;;;;5072312;28;19924;-43
2022/04/12 05:31:48;;;;;;;;;;;;;;;;;;5078309;28;19939;-46
2022/04/12 05:34:13;;;;;;;;;;;;;;;;;;5070837;28;20007;-44
2022/04/12 05:36:38;;;;;;;;;;;;;;;;;;5084889;28;19921;-45
2022/04/12 05:39:03;;;;;;;;;;;;;;;;;;5079298;28;19920;-44
2022/04/12 05:41:29;;;;;;;;;;;;;;;;;;5074175;28;20018;-47
2022/04/12 05:43:54;;;;;;;;;;;;;;;;;;5076263;28;20378;-46
2022/04/12 05:46:19;;;;;;;;;;;;;;;;;;5071251;28;19916;-46
2022/04/12 05:48:44;;;;;;;;;;;;;;;;;;5072359;28;19924;-46
2022/04/12 05:51:09;;;;;;;;;;;;;;;;;;5073994;28;20403;-46
2022/04/12 05:53:35;;;;;;;;;;;;;;;;;;5074209;28;19924;-45
2022/04/12 05:56:00;;;;;;;;;;;;;;;;;;5073869;28;19916;-45
2022/04/12 05:58:25;;;;;;;;;;;;;;;;;;5079642;28;20510;-45
2022/04/12 06:00:50;;;;;;;;;;;;;;;;;;5059693;28;19969;-45
2022/04/12 06:03:15;;;;;;;;;;;;;;;;;;5062654;28;21884;-45
2022/04/12 06:05:40;;;;;;;;;;;;;;;;;;5055024;28;19946;-46
2022/04/12 06:08:07;;;;;;;;;;;;;;;;;;5053760;28;20065;-45
2022/04/12 06:10:32;;;;;;;;;;;;;;;;;;5062956;28;19916;-45
2022/04/12 06:12:58;;;;;;;;;;;;;;;;;;5014152;28;20398;-45
2022/04/12 06:15:23;;;;;;;;;;;;;;;;;;5013940;28;19974;-45
2022/04/12 06:17:48;;;;;;;;;;;;;;;;;;4991050;28;19966;-46
2022/04/12 06:20:14;;;;;;;;;;;;;;;;;;4903110;28;21742;-45
2022/04/12 06:22:39;;;;;;;;;;;;;;;;;;4839402;28;20001;-45
2022/04/12 06:25:04;;;;;;;;;;;;;;;;;;4816146;28;20595;-46
2022/04/12 06:27:30;;;;;;;;;;;;;;;;;;4830640;28;19992;-45
2022/04/12 06:29:55;;;;;;;;;;;;;;;;;;4858591;28;19920;-45
2022/04/12 06:32:20;;;;;;;;;;;;;;;;;;4862948;28;20014;-45
2022/04/12 06:34:45;;;;;;;;;;;;;;;;;;4938424;28;19951;-46
2022/04/12 06:37:10;;;;;;;;;;;;;;;;;;4935309;28;19943;-46
2022/04/12 06:39:35;;;;;;;;;;;;;;;;;;4949639;28;20082;-46
2022/04/12 06:42:00;;;;;;;;;;;;;;;;;;4971938;28;23999;-47
2022/04/12 06:44:25;;;;;;;;;;;;;;;;;;4976210;28;19920;-44
2022/04/12 06:46:51;;;;;;;;;;;;;;;;;;4986418;28;20340;-45
2022/04/12 06:49:16;;;;;;;;;;;;;;;;;;4991120;28;20276;-45
2022/04/12 06:51:41;;;;;;;;;;;;;;;;;;4954068;28;19928;-45
2022/04/12 06:54:06;;;;;;;;;;;;;;;;;;4981358;28;19927;-48
2022/04/12 06:56:31;;;;;;;;;;;;;;;;;;4961042;28;19952;-46
2022/04/12 06:58:56;;;;;;;;;;;;;;;;;;4974609;28;20047;-47
2022/04/12 07:01:21;;;;;;;;;;;;;;;;;;4954358;28;19951;-44
2022/04/12 07:03:47;;;;;;;;;;;;;;;;;;4889169;28;20874;-46
2022/04/12 07:06:12;;;;;;;;;;;;;;;;;;4891830;28;20431;-48
2022/04/12 07:08:37;;;;;;;;;;;;;;;;;;4901642;28;19920;-49
2022/04/12 07:11:02;;;;;;;;;;;;;;;;;;4878485;28;19934;-47
2022/04/12 07:13:27;;;;;;;;;;;;;;;;;;4832767;28;19924;-47
2022/04/12 07:15:52;;;;;;;;;;;;;;;;;;4821261;28;19920;-44
2022/04/12 07:18:17;;;;;;;;;;;;;;;;;;4780932;28;21814;-47
2022/04/12 07:20:43;;;;;;;;;;;;;;;;;;4765450;28;19920;-48
2022/04/12 07:23:08;;;;;;;;;;;;;;;;;;4764955;28;19978;-46
2022/04/12 07:25:34;;;;;;;;;;;;;;;;;;4781979;28;20399;-49
2022/04/12 07:27:59;;;;;;;;;;;;;;;;;;4798083;28;22221;-46
2022/04/12 07:30:24;;;;;;;;;;;;;;;;;;4835740;28;20109;-47
2022/04/12 07:32:49;;;;;;;;;;;;;;;;;;4835273;28;20679;-41
2022/04/12 07:35:14;;;;;;;;;;;;;;;;;;4809982;28;20282;-44
2022/04/12 07:37:39;;;;;;;;;;;;;;;;;;4816217;28;22759;-47
2022/04/12 07:40:05;;;;;;;;;;;;;;;;;;4811613;28;20137;-46
2022/04/12 07:42:30;;;;;;;;;;;;;;;;;;4786892;28;26983;-46
2022/04/12 07:44:55;;;;;;;;;;;;;;;;;;4804729;28;24791;-47
2022/04/12 07:47:20;;;;;;;;;;;;;;;;;;4805789;28;26725;-47
2022/04/12 07:49:45;;;;;;;;;;;;;;;;;;4796806;28;28757;-45
2022/04/12 07:52:10;;;;;;;;;;;;;;;;;;4816652;23;25092;-47
2022/04/12 07:54:35;;;;;;;;;;;;;;;;;;4812821;28;26118;-46
2022/04/12 07:57:01;;;;;;;;;;;;;;;;;;4801201;28;25679;-49
2022/04/12 07:59:26;;;;;;;;;;;;;;;;;;4793392;28;25110;-46
2022/04/12 08:01:51;;;;;;;;;;;;;;;;;;4782887;28;20173;-43
2022/04/12 08:04:16;;;;;;;;;;;;;;;;;;4788440;28;27743;-49
2022/04/12 08:06:41;;;;;;;;;;;;;;;;;;4807115;28;25768;-47
2022/04/12 08:09:06;;;;;;;;;;;;;;;;;;4769625;28;23954;-45
2022/04/12 08:11:31;;;;;;;;;;;;;;;;;;4768465;28;21075;-45
2022/04/12 08:13:57;;;;;;;;;;;;;;;;;;4760393;28;27066;-48
2022/04/12 08:16:22;;;;;;;;;;;;;;;;;;4739520;28;24210;-46
2022/04/12 08:18:47;;;;;;;;;;;;;;;;;;4667951;28;28519;-47
2022/04/12 08:21:12;;;;;;;;;;;;;;;;;;4631578;28;20137;-47
2022/04/12 08:23:37;;;;;;;;;;;;;;;;;;4651304;28;30367;-46
2022/04/12 08:26:02;;;;;;;;;;;;;;;;;;4690528;28;23258;-47
2022/04/12 08:28:27;;;;;;;;;;;;;;;;;;4525315;28;20981;-45
2022/04/12 08:30:53;;;;;;;;;;;;;;;;;;4625485;28;21251;-47
2022/04/12 08:33:18;;;;;;;;;;;;;;;;;;4616206;22;20679;-49
2022/04/12 08:35:43;;;;;;;;;;;;;;;;;;4758015;28;20101;-48
2022/04/12 08:38:08;;;;;;;;;;;;;;;;;;4799815;28;20077;-47
2022/04/12 08:40:33;;;;;;;;;;;;;;;;;;4803371;28;19967;-46
2022/04/12 08:42:58;;;;;;;;;;;;;;;;;;4829753;28;19920;-47
2022/04/12 08:45:23;;;;;;;;;;;;;;;;;;4781371;28;20074;-47
2022/04/12 08:47:49;;;;;;;;;;;;;;;;;;4794925;28;20895;-45
2022/04/12 08:50:14;;;;;;;;;;;;;;;;;;4767635;28;21092;-46
2022/04/12 08:52:39;;;;;;;;;;;;;;;;;;4744988;28;24038;-47
2022/04/12 08:55:04;;;;;;;;;;;;;;;;;;4747215;28;21088;-46
2022/04/12 08:57:29;;;;;;;;;;;;;;;;;;4744225;28;21836;-45
2022/04/12 08:59:54;;;;;;;;;;;;;;;;;;4727895;28;22794;-46
2022/04/12 09:02:19;;;;;;;;;;;;;;;;;;4692169;28;32655;-45
2022/04/12 09:04:45;;;;;;;;;;;;;;;;;;4747541;28;20842;-48
2022/04/12 09:07:10;;;;;;;;;;;;;;;;;;4696404;28;20948;-46
2022/04/12 09:09:35;;;;;;;;;;;;;;;;;;4627403;28;22819;-44
2022/04/12 09:12:02;;;;;;;;;;;;;;;;;;4672544;28;21685;-47
2022/04/12 09:14:28;;;;;;;;;;;;;;;;;;4664161;28;21909;-47
2022/04/12 09:16:53;;;;;;;;;;;;;;;;;;4710889;28;21776;-46
2022/04/12 09:19:19;;;;;;;;;;;;;;;;;;4774649;28;19924;-48
2022/04/12 09:21:45;;;;;;;;;;;;;;;;;;4763327;28;20002;-47
2022/04/12 09:24:10;;;;;;;;;;;;;;;;;;4758664;28;20031;-44
2022/04/12 09:26:35;;;;;;;;;;;;;;;;;;4770055;28;21224;-46
2022/04/12 09:29:00;;;;;;;;;;;;;;;;;;4789503;28;19927;-46
2022/04/12 09:31:25;;;;;;;;;;;;;;;;;;4796742;28;27904;-46
2022/04/12 09:33:50;;;;;;;;;;;;;;;;;;4821926;28;19928;-46
2022/04/12 09:36:15;;;;;;;;;;;;;;;;;;4806471;28;22437;-47
2022/04/12 09:38:40;;;;;;;;;;;;;;;;;;4845173;28;19924;-45
2022/04/12 09:41:06;;;;;;;;;;;;;;;;;;4810911;28;23057;-45
2022/04/12 09:43:31;;;;;;;;;;;;;;;;;;4819628;28;20458;-45
2022/04/12 09:45:56;;;;;;;;;;;;;;;;;;4804469;28;23684;-46
2022/04/12 09:48:21;;;;;;;;;;;;;;;;;;4749201;28;23933;-46
2022/04/12 09:50:46;;;;;;;;;;;;;;;;;;4811819;28;20864;-46
2022/04/12 09:53:11;;;;;;;;;;;;;;;;;;4810338;28;20077;-45
2022/04/12 09:55:37;;;;;;;;;;;;;;;;;;4807909;28;19936;-48
2022/04/12 09:58:02;;;;;;;;;;;;;;;;;;4808587;28;26027;-47
2022/04/12 10:00:29;;;;;;;;;;;;;;;;;;4798349;28;25491;-47
2022/04/12 10:02:54;;;;;;;;;;;;;;;;;;4795849;28;26833;-47
2022/04/12 10:05:20;;;;;;;;;;;;;;;;;;4802215;28;24126;-46
2022/04/12 10:07:45;;;;;;;;;;;;;;;;;;4782210;28;21229;-47
2022/04/12 10:10:10;;;;;;;;;;;;;;;;;;4772844;28;19920;-45
2022/04/12 10:12:35;;;;;;;;;;;;;;;;;;4778281;28;24144;-47
2022/04/12 10:15:00;;;;;;;;;;;;;;;;;;4775377;28;21735;-45
2022/04/12 10:17:25;;;;;;;;;;;;;;;;;;4775613;28;21359;-45
2022/04/12 10:19:51;;;;;;;;;;;;;;;;;;4792743;28;19966;-48
2022/04/12 10:22:16;;;;;;;;;;;;;;;;;;4792375;28;26071;-49
2022/04/12 10:24:41;;;;;;;;;;;;;;;;;;4791230;28;22152;-46
2022/04/12 10:27:06;;;;;;;;;;;;;;;;;;4786521;28;24304;-47
2022/04/12 10:29:31;;;;;;;;;;;;;;;;;;4783066;28;19924;-47
2022/04/12 10:31:56;;;;;;;;;;;;;;;;;;4774768;28;21854;-45
2022/04/12 10:34:21;;;;;;;;;;;;;;;;;;4794974;22;22871;-47
2022/04/12 10:36:46;;;;;;;;;;;;;;;;;;4790389;28;19925;-48
2022/04/12 10:39:12;;;;;;;;;;;;;;;;;;4767673;28;24190;-47
2022/04/12 10:41:37;;;;;;;;;;;;;;;;;;4770179;28;19921;-45
2022/04/12 10:44:02;;;;;;;;;;;;;;;;;;4769620;28;19927;-46
2022/04/12 10:46:28;;;;;;;;;;;;;;;;;;4760069;28;21155;-46
2022/04/12 10:48:54;;;;;;;;;;;;;;;;;;4786862;28;19928;-46
2022/04/12 10:51:19;;;;;;;;;;;;;;;;;;4792837;28;19928;-44
2022/04/12 10:53:44;;;;;;;;;;;;;;;;;;4788288;28;19920;-45
2022/04/12 10:56:09;;;;;;;;;;;;;;;;;;4782476;28;20229;-45
2022/04/12 10:58:34;;;;;;;;;;;;;;;;;;4774901;28;19929;-45
2022/04/12 11:00:59;;;;;;;;;;;;;;;;;;4768067;28;22663;-47
2022/04/12 11:03:24;;;;;;;;;;;;;;;;;;4765407;28;20035;-48
2022/04/12 11:05:49;;;;;;;;;;;;;;;;;;4755048;28;22709;-45
2022/04/12 11:08:14;;;;;;;;;;;;;;;;;;4710278;28;19927;-46
2022/04/12 11:10:40;;;;;;;;;;;;;;;;;;4741115;28;20054;-46
2022/04/12 11:13:05;;;;;;;;;;;;;;;;;;4758841;28;20985;-46
2022/04/12 11:15:30;;;;;;;;;;;;;;;;;;4790351;28;21590;-46
2022/04/12 11:17:56;;;;;;;;;;;;;;;;;;4806805;28;20395;-46
2022/04/12 11:20:21;;;;;;;;;;;;;;;;;;4829802;28;20022;-47
2022/04/12 11:22:46;;;;;;;;;;;;;;;;;;4837547;28;20017;-47
2022/04/12 11:25:11;;;;;;;;;;;;;;;;;;4785575;28;23664;-47
2022/04/12 11:27:36;;;;;;;;;;;;;;;;;;4745971;28;19920;-46
2022/04/12 11:30:02;;;;;;;;;;;;;;;;;;4754424;28;19981;-45
2022/04/12 11:32:27;;;;;;;;;;;;;;;;;;4753261;28;22661;-46
2022/04/12 11:34:52;;;;;;;;;;;;;;;;;;4732910;28;20054;-46
2022/04/12 11:37:17;;;;;;;;;;;;;;;;;;4725899;28;21764;-48
2022/04/12 11:39:42;;;;;;;;;;;;;;;;;;4766198;28;23348;-47
2022/04/12 11:42:08;;;;;;;;;;;;;;;;;;4746055;28;19928;-46
2022/04/12 11:44:33;;;;;;;;;;;;;;;;;;4803466;28;19920;-47
2022/04/12 11:47:00;;;;;;;;;;;;;;;;;;4776852;28;20704;-47
2022/04/12 11:49:25;;;;;;;;;;;;;;;;;;4703617;28;20870;-42
2022/04/12 11:51:50;;;;;;;;;;;;;;;;;;4729400;28;21629;-46
2022/04/12 11:54:19;;;;;;;;;;;;;;;;;;4741419;28;24756;-45
2022/04/12 11:56:44;;;;;;;;;;;;;;;;;;4695334;28;19987;-45
2022/04/12 11:59:09;;;;;;;;;;;;;;;;;;4749956;28;22314;-47
2022/04/12 12:01:34;;;;;;;;;;;;;;;;;;4751730;28;22669;-47
2022/04/12 12:03:59;;;;;;;;;;;;;;;;;;4703664;28;20399;-46
2022/04/12 12:06:27;;;;;;;;;;;;;;;;;;4751169;28;22423;-48
2022/04/12 12:08:52;;;;;;;;;;;;;;;;;;4783474;28;22533;-47
2022/04/12 12:11:17;;;;;;;;;;;;;;;;;;4764165;28;23300;-46
2022/04/12 12:13:42;;;;;;;;;;;;;;;;;;4780053;28;19920;-46
2022/04/12 12:16:08;;;;;;;;;;;;;;;;;;4708914;28;23050;-46
2022/04/12 12:18:33;;;;;;;;;;;;;;;;;;4705943;28;27085;-46
2022/04/12 12:20:58;;;;;;;;;;;;;;;;;;4719667;28;21392;-45
2022/04/12 12:23:23;;;;;;;;;;;;;;;;;;4461149;28;19959;-47
2022/04/12 12:25:50;;;;;;;;;;;;;;;;;;4505610;28;19921;-47
2022/04/12 12:28:15;;;;;;;;;;;;;;;;;;4647375;28;21941;-46
2022/04/12 12:30:40;;;;;;;;;;;;;;;;;;4766965;28;20025;-46
2022/04/12 12:33:05;;;;;;;;;;;;;;;;;;4765632;28;20062;-51
2022/04/12 12:35:30;;;;;;;;;;;;;;;;;;4704337;28;19950;-45
2022/04/12 12:37:55;;;;;;;;;;;;;;;;;;4776807;28;22812;-45
2022/04/12 12:40:21;;;;;;;;;;;;;;;;;;4803287;28;21948;-45
2022/04/12 12:42:46;;;;;;;;;;;;;;;;;;4774027;28;20306;-45
2022/04/12 12:45:11;;;;;;;;;;;;;;;;;;4792725;28;19927;-46
2022/04/12 12:47:36;;;;;;;;;;;;;;;;;;4801874;28;23385;-47
2022/04/12 12:50:04;;;;;;;;;;;;;;;;;;4836363;28;19926;-47
2022/04/12 12:52:29;;;;;;;;;;;;;;;;;;4843564;28;20046;-46
2022/04/12 12:54:58;;;;;;;;;;;;;;;;;;4818593;28;22630;-45
2022/04/12 12:57:23;;;;;;;;;;;;;;;;;;4823859;28;19927;-46
2022/04/12 12:59:49;;;;;;;;;;;;;;;;;;4789291;28;20881;-45
2022/04/12 13:02:14;;;;;;;;;;;;;;;;;;4805515;28;19967;-46
2022/04/12 13:04:41;;;;;;;;;;;;;;;;;;4787854;28;20359;-47
2022/04/12 13:07:07;;;;;;;;;;;;;;;;;;4795445;28;19920;-46
2022/04/12 13:09:32;;;;;;;;;;;;;;;;;;4782541;28;20464;-47
2022/04/12 13:11:57;;;;;;;;;;;;;;;;;;4757315;28;20099;-46
2022/04/12 13:14:22;;;;;;;;;;;;;;;;;;4734514;28;21514;-47
2022/04/12 13:16:47;;;;;;;;;;;;;;;;;;4817602;28;20742;-44
2022/04/12 13:19:12;;;;;;;;;;;;;;;;;;4918639;28;19924;-45
2022/04/12 13:21:37;;;;;;;;;;;;;;;;;;4972844;28;19919;-46
2022/04/12 13:24:02;;;;;;;;;;;;;;;;;;5002842;28;19927;-46
2022/04/12 13:26:27;;;;;;;;;;;;;;;;;;5002103;28;19927;-46
2022/04/12 13:28:53;;;;;;;;;;;;;;;;;;5016134;28;19963;-46
2022/04/12 13:31:18;;;;;;;;;;;;;;;;;;5024434;28;20593;-46
2022/04/12 13:33:43;;;;;;;;;;;;;;;;;;5018662;28;19920;-46
2022/04/12 13:36:08;;;;;;;;;;;;;;;;;;5031445;28;20522;-46
2022/04/12 13:38:33;;;;;;;;;;;;;;;;;;5023394;28;19920;-48
2022/04/12 13:40:58;;;;;;;;;;;;;;;;;;5032169;28;20011;-46
2022/04/12 13:43:24;;;;;;;;;;;;;;;;;;5030825;28;19920;-46
2022/04/12 13:45:49;;;;;;;;;;;;;;;;;;5028636;28;19921;-45
2022/04/12 13:48:14;;;;;;;;;;;;;;;;;;5027685;28;20531;-47
2022/04/12 13:50:39;;;;;;;;;;;;;;;;;;5003139;28;19920;-48
2022/04/12 13:53:05;;;;;;;;;;;;;;;;;;5005510;28;20354;-46
2022/04/12 13:55:30;;;;;;;;;;;;;;;;;;5018326;28;20306;-45
2022/04/12 13:57:55;;;;;;;;;;;;;;;;;;5022942;28;19921;-45
2022/04/12 14:00:23;;;;;;;;;;;;;;;;;;5015111;28;19924;-45
2022/04/12 14:02:48;;;;;;;;;;;;;;;;;;4975962;28;19955;-46
2022/04/12 14:05:13;;;;;;;;;;;;;;;;;;4943450;28;19931;-46
2022/04/12 14:07:39;;;;;;;;;;;;;;;;;;4982396;28;20559;-46
2022/04/12 14:10:04;;;;;;;;;;;;;;;;;;5018248;28;19959;-45
2022/04/12 14:12:29;;;;;;;;;;;;;;;;;;5032307;28;19962;-45
2022/04/12 14:14:54;;;;;;;;;;;;;;;;;;5052344;28;20409;-45
2022/04/12 14:17:21;;;;;;;;;;;;;;;;;;5049360;28;19958;-50
2022/04/12 14:19:46;;;;;;;;;;;;;;;;;;5053570;28;20370;-47
2022/04/12 14:22:12;;;;;;;;;;;;;;;;;;5049590;28;19920;-47
2022/04/12 14:24:37;;;;;;;;;;;;;;;;;;5052392;28;20291;-47
2022/04/12 14:27:02;;;;;;;;;;;;;;;;;;5062900;28;19963;-46
2022/04/12 14:29:27;;;;;;;;;;;;;;;;;;5056817;28;19969;-47
2022/04/12 14:31:53;;;;;;;;;;;;;;;;;;5029657;28;19971;-46
2022/04/12 14:34:18;;;;;;;;;;;;;;;;;;5054374;28;19955;-49
2022/04/12 14:36:43;;;;;;;;;;;;;;;;;;5048741;28;19928;-50
2022/04/12 14:39:08;;;;;;;;;;;;;;;;;;5031612;28;23066;-46
2022/04/12 14:41:35;;;;;;;;;;;;;;;;;;5043059;28;21711;-47
2022/04/12 14:44:00;;;;;;;;;;;;;;;;;;5051841;28;20516;-46
2022/04/12 14:46:26;;;;;;;;;;;;;;;;;;5042474;28;22302;-46
2022/04/12 14:48:51;;;;;;;;;;;;;;;;;;5058400;28;19916;-46
2022/04/12 14:51:16;;;;;;;;;;;;;;;;;;5043239;28;19920;-49
2022/04/12 14:53:41;;;;;;;;;;;;;;;;;;5026987;28;20010;-47
2022/04/12 14:56:07;;;;;;;;;;;;;;;;;;5039188;28;19974;-49
2022/04/12 14:58:32;;;;;;;;;;;;;;;;;;5057141;28;19999;-45
2022/04/12 15:01:01;;;;;;;;;;;;;;;;;;5073912;28;20305;-48
2022/04/12 15:03:26;;;;;;;;;;;;;;;;;;5075353;28;19916;-46
2022/04/12 15:05:51;;;;;;;;;;;;;;;;;;5081290;28;19961;-47
2022/04/12 15:08:16;;;;;;;;;;;;;;;;;;5078329;28;19940;-46
2022/04/12 15:10:41;;;;;;;;;;;;;;;;;;5080237;28;20391;-48
2022/04/12 15:13:08;;;;;;;;;;;;;;;;;;5075368;28;19912;-47
2022/04/12 15:15:33;;;;;;;;;;;;;;;;;;5076296;28;20355;-46
2022/04/12 15:17:58;;;;;;;;;;;;;;;;;;5080112;28;19912;-48
2022/04/12 15:20:23;;;;;;;;;;;;;;;;;;5079567;28;19924;-47
2022/04/12 15:22:49;;;;;;;;;;;;;;;;;;5080519;28;19917;-47
2022/04/12 15:25:14;;;;;;;;;;;;;;;;;;5074570;28;19921;-47
2022/04/12 15:27:43;;;;;;;;;;;;;;;;;;5083711;28;20314;-47
2022/04/12 15:30:10;;;;;;;;;;;;;;;;;;5083147;28;19919;-46
2022/04/12 15:32:35;;;;;;;;;;;;;;;;;;5076450;28;20058;-48
2022/04/12 15:35:00;;;;;;;;;;;;;;;;;;5084536;28;20019;-45
2022/04/12 15:37:25;;;;;;;;;;;;;;;;;;5085066;28;20358;-46
2022/04/12 15:39:51;;;;;;;;;;;;;;;;;;5087444;28;19919;-45
2022/04/12 15:42:16;;;;;;;;;;;;;;;;;;5078219;28;19913;-46
2022/04/12 15:44:41;;;;;;;;;;;;;;;;;;5084940;28;19912;-46
2022/04/12 15:47:06;;;;;;;;;;;;;;;;;;5085832;28;19913;-46
2022/04/12 15:49:31;;;;;;;;;;;;;;;;;;5078258;28;19912;-47
2022/04/12 15:51:56;;;;;;;;;;;;;;;;;;5087064;28;19920;-46
2022/04/12 15:54:21;;;;;;;;;;;;;;;;;;5076687;28;19920;-47
2022/04/12 15:56:50;;;;;;;;;;;;;;;;;;5061709;28;19964;-45
2022/04/12 15:59:15;;;;;;;;;;;;;;;;;;5076863;28;19923;-47
2022/04/12 16:01:40;;;;;;;;;;;;;;;;;;5078010;28;19987;-44
2022/04/12 16:04:05;;;;;;;;;;;;;;;;;;5078100;28;19912;-45
2022/04/12 16:06:31;;;;;;;;;;;;;;;;;;5082592;28;19912;-44
2022/04/12 16:08:57;;;;;;;;;;;;;;;;;;5076900;28;19913;-44
2022/04/12 16:11:22;;;;;;;;;;;;;;;;;;5090665;28;19912;-44
2022/04/12 16:13:47;;;;;;;;;;;;;;;;;;5074581;28;19923;-45
2022/04/12 16:16:12;;;;;;;;;;;;;;;;;;5083074;28;19919;-44
2022/04/12 16:18:37;;;;;;;;;;;;;;;;;;5079238;28;19919;-44
2022/04/12 16:21:02;;;;;;;;;;;;;;;;;;5089782;28;19918;-48
2022/04/12 16:23:27;;;;;;;;;;;;;;;;;;5073022;28;20359;-47
2022/04/12 16:25:53;;;;;;;;;;;;;;;;;;5075516;28;19965;-47
2022/04/12 16:28:18;;;;;;;;;;;;;;;;;;5071744;28;20654;-46
2022/04/12 16:30:43;;;;;;;;;;;;;;;;;;5083470;28;20324;-47
2022/04/12 16:33:09;;;;;;;;;;;;;;;;;;5074361;28;19913;-46